Wilson Clyde — 8PRV — position and weather

sailwx.info

Track history (hours):
 
Tides and Currents Weather Stations Pressure Air Temp Water Temp Dewpoint Dewpoint Depression Visibility Wind Speed Wind Dir Waves Ship Positions

Wilson Clyde

Last reported at 2017-Feb-25 13:33 UTC. Time now 2017-Feb-25 15:53 UTC.
Position N 48°52' W 005°48'.

Length 100 m; draft 5.6 m.

Type: Cargo ship. MMSI: 314187000.

Date/timePositionNaut miles runAvg speedWind from/ knotsBaromVisibWave heightAir tempDewpointWater temp
2017-Feb-25 13:33N 48°52' W 005°48'82 8.9
2017-Feb-25 04:22N 49°34' W 004°00'8 9.2
2017-Feb-25 03:33N 49°37' W 003°50'2110.5
2017-Feb-25 01:32N 49°48' W 003°22'1312.3
2017-Feb-25 00:30N 49°54' W 003°05'109 9.9
2017-Feb-24 13:31N 50°26' W 000°21'1212.5
2017-Feb-24 12:34N 50°29' W 000°04'1211.7
2017-Feb-24 11:33N 50°32' E 000°14'1110.5
2017-Feb-24 10:32N 50°35' E 000°30'9 9.4
2017-Feb-24 09:33N 50°40' E 000°42'2210.1
2017-Feb-24 07:25N 50°54' E 001°09'1011.5
2017-Feb-24 06:34N 51°01' E 001°20'1313.1
2017-Feb-24 05:33N 51°09' E 001°37'1212.2
2017-Feb-24 04:34N 51°18' E 001°50'1111.0
2017-Feb-24 03:33N 51°27' E 001°59'10 9.7
2017-Feb-24 02:32N 51°35' E 002°09'8 8.4
2017-Feb-24 01:33N 51°41' E 002°18'74 8.7
2017-Feb-23 17:07N 52°54' E 001°58'711.9
2017-Feb-23 16:33N 52°58' E 001°49'1111.0
2017-Feb-23 15:34N 53°05' E 001°35'1110.6
2017-Feb-23 14:34N 53°12' E 001°22'59 8.4
2017-Feb-23 07:28N 54°01' E 000°26'8 9.2
2017-Feb-23 06:33N 54°07' E 000°17'9 9.1
2017-Feb-23 05:34N 54°14' E 000°06'9 9.3
2017-Feb-23 04:34N 54°21' W 000°04'1010.0
2017-Feb-23 03:34N 54°29' W 000°16'  
2017-Feb-19 06:33N 55°01' W 001°10'1010.3
2017-Feb-19 05:33N 55°11' W 001°12'1010.0
2017-Feb-19 04:33N 55°21' W 001°14'1010.0
2017-Feb-19 03:33N 55°31' W 001°15'10510.1
2017-Feb-18 17:09N 57°16' W 001°31'610.0
2017-Feb-18 16:33N 57°22' W 001°32'10 9.7
2017-Feb-18 15:33N 57°32' W 001°35'10 9.9
2017-Feb-18 14:33N 57°40' W 001°44'6310.1
2017-Feb-18 08:19N 58°34' W 002°48'810.1
2017-Feb-18 07:33N 58°39' W 002°59'8 7.8
2017-Feb-18 06:33N 58°44' W 003°11'10 9.9
2017-Feb-18 05:33N 58°47' W 003°29'1211.6
2017-Feb-18 04:33N 58°51' W 003°49'1211.8
2017-Feb-18 03:33N 58°56' W 004°11'1212.1
2017-Feb-18 02:33N 59°00' W 004°32'  
Track history (hours):
 
Tides and Currents Weather Stations Pressure Air Temp Water Temp Dewpoint Dewpoint Depression Visibility Wind Speed Wind Dir Waves Ship Positions

Wilson Clyde

Last reported at 2017-Feb-25 13:33 UTC. Time now 2017-Feb-25 15:53 UTC.
Position N 48°52' W 005°48'.

Length 100 m; draft 5.6 m.

Type: Cargo ship. MMSI: 314187000.

Date/timePositionNaut miles runAvg speedWind from/ knotsBaromVisibWave heightAir tempDewpointWater temp
2017-Feb-25 13:33N 48°52' W 005°48'82 8.9
2017-Feb-25 04:22N 49°34' W 004°00'8 9.2
2017-Feb-25 03:33N 49°37' W 003°50'2110.5
2017-Feb-25 01:32N 49°48' W 003°22'1312.3
2017-Feb-25 00:30N 49°54' W 003°05'109 9.9
2017-Feb-24 13:31N 50°26' W 000°21'1212.5
2017-Feb-24 12:34N 50°29' W 000°04'1211.7
2017-Feb-24 11:33N 50°32' E 000°14'1110.5
2017-Feb-24 10:32N 50°35' E 000°30'9 9.4
2017-Feb-24 09:33N 50°40' E 000°42'2210.1
2017-Feb-24 07:25N 50°54' E 001°09'1011.5
2017-Feb-24 06:34N 51°01' E 001°20'1313.1
2017-Feb-24 05:33N 51°09' E 001°37'1212.2
2017-Feb-24 04:34N 51°18' E 001°50'1111.0
2017-Feb-24 03:33N 51°27' E 001°59'10 9.7
2017-Feb-24 02:32N 51°35' E 002°09'8 8.4
2017-Feb-24 01:33N 51°41' E 002°18'74 8.7
2017-Feb-23 17:07N 52°54' E 001°58'711.9
2017-Feb-23 16:33N 52°58' E 001°49'1111.0
2017-Feb-23 15:34N 53°05' E 001°35'1110.6
2017-Feb-23 14:34N 53°12' E 001°22'59 8.4
2017-Feb-23 07:28N 54°01' E 000°26'8 9.2
2017-Feb-23 06:33N 54°07' E 000°17'9 9.1
2017-Feb-23 05:34N 54°14' E 000°06'9 9.3
2017-Feb-23 04:34N 54°21' W 000°04'1010.0
2017-Feb-23 03:34N 54°29' W 000°16'  
2017-Feb-19 06:33N 55°01' W 001°10'1010.3
2017-Feb-19 05:33N 55°11' W 001°12'1010.0
2017-Feb-19 04:33N 55°21' W 001°14'1010.0
2017-Feb-19 03:33N 55°31' W 001°15'10510.1
2017-Feb-18 17:09N 57°16' W 001°31'610.0
2017-Feb-18 16:33N 57°22' W 001°32'10 9.7
2017-Feb-18 15:33N 57°32' W 001°35'10 9.9
2017-Feb-18 14:33N 57°40' W 001°44'6310.1
2017-Feb-18 08:19N 58°34' W 002°48'810.1
2017-Feb-18 07:33N 58°39' W 002°59'8 7.8
2017-Feb-18 06:33N 58°44' W 003°11'10 9.9
2017-Feb-18 05:33N 58°47' W 003°29'1211.6
2017-Feb-18 04:33N 58°51' W 003°49'1211.8
2017-Feb-18 03:33N 58°56' W 004°11'1212.1
2017-Feb-18 02:33N 59°00' W 004°32'  

Dump ship's entire track history